createdAt,value
2022-11-09T00:00:55.138Z,1.60
2022-11-09T00:03:22.085Z,1.23
2022-11-09T00:05:59.715Z,1.50
2022-11-09T00:08:26.864Z,1.60
2022-11-09T00:10:53.803Z,1.30
2022-11-09T00:13:21.158Z,1.63
2022-11-09T00:15:48.386Z,1.40
2022-11-09T00:18:15.126Z,1.77
2022-11-09T00:20:47.648Z,1.60
2022-11-09T00:23:16.415Z,1.70
2022-11-09T00:25:43.418Z,1.17
2022-11-09T00:28:10.251Z,1.77
2022-11-09T00:30:37.358Z,1.40
2022-11-09T00:33:04.219Z,1.30
2022-11-09T00:35:31.146Z,1.50
2022-11-09T00:38:00.730Z,1.43
2022-11-09T00:40:27.452Z,1.67
2022-11-09T00:42:54.331Z,1.40
2022-11-09T00:45:21.053Z,1.50
2022-11-09T00:47:47.851Z,1.30
2022-11-09T00:50:14.621Z,1.63
2022-11-09T00:52:41.387Z,1.50
2022-11-09T00:55:08.459Z,1.07
2022-11-09T00:57:35.146Z,1.50
2022-11-09T01:00:01.823Z,0.97
2022-11-09T01:02:28.548Z,1.20
2022-11-09T01:04:55.361Z,0.97
2022-11-09T01:07:22.135Z,0.90
2022-11-09T01:09:48.884Z,1.27
2022-11-09T01:12:15.581Z,1.07
2022-11-09T01:14:42.353Z,0.93
2022-11-09T01:17:09.110Z,1.50
2022-11-09T01:19:36.014Z,1.53
2022-11-09T01:22:02.785Z,1.50
2022-11-09T01:24:29.543Z,1.33
2022-11-09T01:26:56.277Z,1.50
2022-11-09T01:29:22.949Z,1.70
2022-11-09T01:31:49.715Z,1.40
2022-11-09T01:34:17.652Z,1.80
2022-11-09T01:36:44.453Z,1.87
2022-11-09T01:39:11.505Z,1.60
2022-11-09T01:41:38.314Z,2.03
2022-11-09T01:44:12.031Z,1.87
2022-11-09T01:46:50.103Z,2.13
2022-11-09T01:49:27.717Z,1.90
2022-11-09T01:51:59.329Z,1.53
2022-11-09T01:54:37.216Z,1.97
2022-11-09T01:57:10.482Z,1.90
2022-11-09T01:59:47.394Z,1.80
2022-11-09T02:02:14.600Z,1.60
2022-11-09T02:04:47.510Z,1.83
2022-11-09T02:07:15.008Z,1.60
2022-11-09T02:10:03.717Z,1.70
2022-11-09T02:12:34.051Z,1.93
2022-11-09T02:15:03.613Z,1.60
2022-11-09T02:17:31.204Z,1.47
2022-11-09T02:19:58.916Z,1.67
2022-11-09T02:22:26.239Z,1.27
2022-11-09T02:24:56.360Z,1.47
2022-11-09T02:27:24.207Z,1.73
2022-11-09T02:29:51.453Z,1.60
2022-11-09T02:32:24.224Z,1.63
2022-11-09T02:34:50.934Z,2.07
2022-11-09T02:37:39.514Z,1.53
2022-11-09T02:40:14.566Z,1.20
2022-11-09T02:42:41.487Z,1.53
2022-11-09T02:45:09.886Z,2.17
2022-11-09T02:47:36.649Z,1.20
2022-11-09T02:50:03.987Z,1.80
2022-11-09T02:52:30.710Z,1.40
2022-11-09T02:54:57.434Z,1.50
2022-11-09T02:57:24.202Z,1.40
2022-11-09T02:59:51.152Z,1.43
2022-11-09T03:02:17.907Z,1.40
2022-11-09T03:04:44.782Z,1.20
2022-11-09T03:07:11.779Z,1.20
2022-11-09T03:09:38.597Z,1.33
2022-11-09T03:12:25.679Z,1.80
2022-11-09T03:14:52.419Z,2.23
2022-11-09T03:17:19.138Z,1.50
2022-11-09T03:19:45.947Z,1.27
2022-11-09T03:22:12.715Z,1.53
2022-11-09T03:24:39.537Z,1.43
2022-11-09T03:27:06.358Z,1.33
2022-11-09T03:29:33.688Z,1.20
2022-11-09T03:32:03.650Z,1.00
2022-11-09T03:34:33.430Z,1.37
2022-11-09T03:37:00.189Z,1.40
2022-11-09T03:39:27.044Z,1.63
2022-11-09T03:41:53.986Z,1.53
2022-11-09T03:44:20.835Z,1.17
2022-11-09T03:46:48.216Z,1.20
2022-11-09T03:49:14.897Z,1.13
2022-11-09T03:51:41.579Z,1.17
2022-11-09T03:54:08.493Z,1.47
2022-11-09T03:56:35.269Z,1.23
2022-11-09T03:59:01.977Z,1.40
2022-11-09T04:01:28.738Z,1.13
2022-11-09T04:03:55.491Z,1.07
2022-11-09T04:06:22.174Z,1.40
2022-11-09T04:08:51.459Z,1.40
2022-11-09T04:11:18.736Z,1.40
2022-11-09T04:13:45.506Z,1.50
2022-11-09T04:16:18.187Z,1.20
2022-11-09T04:18:44.960Z,1.27
2022-11-09T04:21:11.743Z,1.03
2022-11-09T04:23:38.504Z,0.90
2022-11-09T04:26:05.319Z,1.37
2022-11-09T04:28:32.020Z,1.97
2022-11-09T04:31:02.317Z,1.60
2022-11-09T04:33:29.360Z,1.73
2022-11-09T04:36:00.854Z,1.50
2022-11-09T04:38:27.627Z,1.67
2022-11-09T04:40:54.345Z,1.77
2022-11-09T04:43:23.437Z,1.60
2022-11-09T04:45:50.243Z,1.37
2022-11-09T04:48:17.002Z,2.37
2022-11-09T04:50:43.729Z,1.53
2022-11-09T04:53:15.408Z,2.27
2022-11-09T04:55:42.609Z,1.67
2022-11-09T04:58:09.859Z,1.70
2022-11-09T05:00:36.710Z,1.97
2022-11-09T05:03:05.509Z,1.70
2022-11-09T05:05:36.751Z,1.80
2022-11-09T05:08:04.885Z,1.53
2022-11-09T05:10:32.268Z,1.87
2022-11-09T05:13:11.098Z,1.70
2022-11-09T05:15:38.080Z,1.60
2022-11-09T05:18:06.099Z,1.93
2022-11-09T05:20:33.329Z,1.93
2022-11-09T05:23:19.326Z,1.67
2022-11-09T05:25:46.777Z,2.20
2022-11-09T05:28:13.786Z,1.50
2022-11-09T05:30:40.589Z,1.83
2022-11-09T05:33:07.395Z,2.17
2022-11-09T05:35:34.432Z,1.37
2022-11-09T05:38:03.603Z,1.70
2022-11-09T05:40:30.404Z,1.80
2022-11-09T05:42:57.224Z,1.67
2022-11-09T05:45:41.984Z,2.43
2022-11-09T05:48:10.538Z,2.20
2022-11-09T05:50:38.188Z,2.03
2022-11-09T05:53:05.290Z,1.90
2022-11-09T05:55:32.071Z,1.70
2022-11-09T05:57:59.306Z,1.50
2022-11-09T06:00:26.866Z,1.83
2022-11-09T06:03:04.114Z,1.63
2022-11-09T06:05:33.420Z,2.40
2022-11-09T06:08:05.585Z,1.77
2022-11-09T06:10:32.756Z,2.10
2022-11-09T06:12:59.578Z,2.13
2022-11-09T06:15:26.500Z,1.70
2022-11-09T06:17:54.414Z,1.47
2022-11-09T06:20:22.270Z,1.60
2022-11-09T06:23:03.020Z,1.90
2022-11-09T06:25:34.091Z,2.43
2022-11-09T06:28:01.256Z,1.63
2022-11-09T06:30:28.323Z,1.67
2022-11-09T06:33:02.714Z,2.53
2022-11-09T06:35:29.993Z,1.80
2022-11-09T06:38:00.684Z,1.37
2022-11-09T06:40:28.664Z,1.43
2022-11-09T06:43:01.538Z,1.70
2022-11-09T06:45:30.016Z,1.70
2022-11-09T06:48:03.315Z,1.70
2022-11-09T06:50:32.957Z,1.90
2022-11-09T06:53:01.837Z,1.97
2022-11-09T06:55:29.373Z,1.57
2022-11-09T06:57:57.007Z,1.77
2022-11-09T07:00:26.739Z,1.50
2022-11-09T07:02:53.969Z,1.70
2022-11-09T07:05:21.073Z,1.67
2022-11-09T07:07:47.793Z,1.40
2022-11-09T07:10:14.608Z,1.77
2022-11-09T07:12:41.462Z,1.70
2022-11-09T07:15:09.855Z,1.47
2022-11-09T07:17:38.337Z,2.10
2022-11-09T07:20:06.995Z,1.63
2022-11-09T07:22:39.245Z,1.80
2022-11-09T07:25:13.747Z,1.40
2022-11-09T07:27:40.536Z,1.97
2022-11-09T07:30:07.868Z,1.63
2022-11-09T07:33:08.605Z,1.93
2022-11-09T07:35:27.347Z,1.77
2022-11-09T07:37:56.193Z,1.70
2022-11-09T07:40:22.886Z,2.60
2022-11-09T07:42:49.651Z,1.60
2022-11-09T07:45:16.831Z,2.10
2022-11-09T07:47:43.614Z,1.60
2022-11-09T07:50:10.643Z,1.80
2022-11-09T07:52:37.384Z,2.07
2022-11-09T07:55:04.457Z,2.20
2022-11-09T07:57:31.444Z,2.57
2022-11-09T08:00:01.349Z,1.90
2022-11-09T08:02:28.094Z,2.30
2022-11-09T08:04:55.068Z,1.70
2022-11-09T08:07:23.640Z,1.73
2022-11-09T08:09:50.506Z,1.60
2022-11-09T08:12:19.397Z,2.20
2022-11-09T08:14:49.204Z,1.73
2022-11-09T08:17:15.957Z,1.97
2022-11-09T08:19:42.714Z,1.60
2022-11-09T08:22:18.192Z,1.37
2022-11-09T08:24:47.378Z,1.63
2022-11-09T08:27:14.101Z,1.70
2022-11-09T08:29:40.850Z,1.50
2022-11-09T08:32:07.672Z,1.60
2022-11-09T08:34:34.449Z,1.60
2022-11-09T08:37:02.385Z,2.40
2022-11-09T08:39:32.853Z,1.70
2022-11-09T08:41:59.589Z,1.53
2022-11-09T08:44:28.501Z,1.50
2022-11-09T08:46:56.747Z,1.70
2022-11-09T08:49:23.598Z,2.00
2022-11-09T08:51:52.592Z,1.70
2022-11-09T08:54:32.031Z,2.03
2022-11-09T08:56:58.729Z,2.37
2022-11-09T08:59:25.467Z,2.00
2022-11-09T09:01:52.314Z,1.80
2022-11-09T09:04:19.177Z,1.93
2022-11-09T09:06:46.085Z,2.23
2022-11-09T09:09:14.265Z,1.73
2022-11-09T09:11:41.047Z,1.80
2022-11-09T09:14:07.730Z,1.40
2022-11-09T09:16:39.101Z,1.60
2022-11-09T09:19:05.923Z,1.70
2022-11-09T09:21:32.644Z,1.87
2022-11-09T09:23:59.349Z,1.60
2022-11-09T09:26:26.146Z,1.87
2022-11-09T09:28:58.737Z,2.07
2022-11-09T09:31:25.573Z,1.97
2022-11-09T09:33:52.422Z,2.03
2022-11-09T09:36:23.708Z,1.93
2022-11-09T09:38:52.109Z,2.20
2022-11-09T09:41:23.476Z,1.70
2022-11-09T09:43:55.195Z,1.60
2022-11-09T09:46:40.752Z,1.80
2022-11-09T09:49:15.475Z,1.70
2022-11-09T09:52:06.444Z,1.70
2022-11-09T09:54:42.318Z,2.10
2022-11-09T09:57:21.656Z,1.73
2022-11-09T09:59:54.934Z,1.53
2022-11-09T10:02:26.409Z,1.23
2022-11-09T10:04:59.861Z,1.67
2022-11-09T10:07:35.025Z,1.67
2022-11-09T10:10:20.639Z,1.90
2022-11-09T10:13:03.441Z,2.00
2022-11-09T10:15:42.807Z,1.60
2022-11-09T10:18:33.028Z,1.67
2022-11-09T10:21:16.841Z,1.57
2022-11-09T10:24:07.590Z,1.60
2022-11-09T10:26:44.776Z,1.63
2022-11-09T10:29:20.450Z,1.70
2022-11-09T10:31:49.059Z,1.60
2022-11-09T10:34:29.890Z,1.60
2022-11-09T10:37:32.310Z,1.60
2022-11-09T10:40:13.202Z,1.50
2022-11-09T10:42:49.250Z,1.63
2022-11-09T10:45:29.728Z,1.70
2022-11-09T10:47:56.506Z,1.50
2022-11-09T10:50:25.490Z,1.23
2022-11-09T10:52:52.650Z,1.60
2022-11-09T10:55:28.153Z,1.20
2022-11-09T10:58:25.072Z,1.30
2022-11-09T11:01:16.707Z,1.20
2022-11-09T11:03:44.788Z,1.67
2022-11-09T11:06:15.924Z,1.20
2022-11-09T11:08:46.003Z,1.40
2022-11-09T11:11:36.073Z,1.70
2022-11-09T11:14:09.207Z,1.67
2022-11-09T11:16:37.091Z,1.60
2022-11-09T11:19:05.099Z,1.40
2022-11-09T11:21:32.358Z,1.90
2022-11-09T11:24:20.509Z,1.30
2022-11-09T11:27:22.694Z,1.93
2022-11-09T11:30:29.164Z,1.53
2022-11-09T11:32:59.325Z,1.23
2022-11-09T11:35:28.745Z,1.30
2022-11-09T11:38:01.519Z,1.47
2022-11-09T11:40:38.540Z,1.27
2022-11-09T11:43:26.447Z,1.10
2022-11-09T11:46:05.576Z,1.20
2022-11-09T11:48:57.504Z,1.97
2022-11-09T11:51:38.159Z,2.00
2022-11-09T11:54:25.333Z,1.17
2022-11-09T11:56:55.522Z,1.60
2022-11-09T11:59:45.682Z,1.63
2022-11-09T12:02:43.512Z,1.80
2022-11-09T12:05:52.686Z,1.33
2022-11-09T12:08:50.041Z,1.20
2022-11-09T12:11:35.726Z,1.20
2022-11-09T12:14:32.841Z,1.20
2022-11-09T12:17:21.123Z,1.37
2022-11-09T12:20:24.640Z,1.20
2022-11-09T12:23:28.195Z,1.60
2022-11-09T12:26:23.909Z,1.20
2022-11-09T12:29:09.381Z,1.50
2022-11-09T12:32:04.864Z,1.13
2022-11-09T12:34:39.158Z,0.93
2022-11-09T12:37:16.180Z,1.33
2022-11-09T12:39:54.250Z,1.17
2022-11-09T12:42:36.125Z,1.23
2022-11-09T12:45:29.506Z,1.40
2022-11-09T12:47:59.430Z,0.87
2022-11-09T12:50:27.626Z,1.10
2022-11-09T12:52:54.756Z,0.80
2022-11-09T12:55:39.532Z,0.93
2022-11-09T12:58:07.707Z,1.00
2022-11-09T13:00:34.376Z,1.30
2022-11-09T13:03:05.458Z,1.20
2022-11-09T13:05:37.811Z,1.10
2022-11-09T13:08:15.854Z,0.93
2022-11-09T13:10:45.132Z,0.87
2022-11-09T13:13:11.764Z,0.70
2022-11-09T13:15:40.023Z,0.80
2022-11-09T13:18:46.225Z,0.93
2022-11-09T13:21:34.566Z,1.00
2022-11-09T13:24:49.505Z,1.33
2022-11-09T13:27:49.864Z,2.50
2022-11-09T13:30:25.227Z,1.20
2022-11-09T13:33:07.270Z,1.20
2022-11-09T13:35:40.171Z,0.93
2022-11-09T13:38:19.815Z,1.03
2022-11-09T13:40:50.334Z,0.90
2022-11-09T13:43:22.046Z,1.00
2022-11-09T13:45:55.267Z,0.80
2022-11-09T13:48:44.642Z,1.13
2022-11-09T13:51:37.546Z,1.17
2022-11-09T13:54:29.651Z,1.10
2022-11-09T13:56:57.396Z,1.23
2022-11-09T13:59:39.137Z,0.90
2022-11-09T14:02:23.961Z,1.07
2022-11-09T14:04:50.804Z,0.90
2022-11-09T14:07:20.596Z,1.00
2022-11-09T14:09:56.134Z,1.00
2022-11-09T14:12:29.126Z,1.53
2022-11-09T14:15:34.123Z,0.70
2022-11-09T14:18:31.647Z,1.00
2022-11-09T14:21:38.343Z,0.80
2022-11-09T14:24:34.148Z,1.37
2022-11-09T14:27:11.067Z,1.37
2022-11-09T14:29:51.445Z,1.50
2022-11-09T14:32:35.597Z,1.07
2022-11-09T14:35:24.873Z,1.17
2022-11-09T14:37:56.197Z,1.03
2022-11-09T14:40:31.370Z,0.80
2022-11-09T14:43:23.562Z,1.20
2022-11-09T14:45:53.239Z,1.10
2022-11-09T14:48:21.870Z,1.40
2022-11-09T14:50:52.280Z,1.17
2022-11-09T14:53:38.943Z,0.97
2022-11-09T14:56:09.732Z,1.10
2022-11-09T14:58:41.223Z,1.17
2022-11-09T15:01:25.580Z,0.93
2022-11-09T15:04:21.312Z,1.10
2022-11-09T15:06:57.518Z,1.17
2022-11-09T15:09:42.630Z,1.30
2022-11-09T15:12:20.839Z,1.20
2022-11-09T15:14:57.298Z,1.13
2022-11-09T15:17:24.047Z,0.90
2022-11-09T15:20:23.302Z,0.97
2022-11-09T15:22:56.232Z,0.90
2022-11-09T15:25:32.657Z,0.90
2022-11-09T15:28:20.004Z,1.07
2022-11-09T15:30:53.683Z,1.57
2022-11-09T15:33:48.244Z,1.00
2022-11-09T15:36:30.476Z,1.00
2022-11-09T15:39:11.797Z,1.13
2022-11-09T15:41:41.001Z,1.00
2022-11-09T15:44:08.405Z,1.17
2022-11-09T15:46:41.602Z,1.00
2022-11-09T15:49:21.111Z,1.53
2022-11-09T15:51:48.559Z,1.30
2022-11-09T15:54:16.414Z,1.30
2022-11-09T15:56:43.819Z,1.40
2022-11-09T15:59:24.707Z,1.07
2022-11-09T16:01:52.166Z,1.40
2022-11-09T16:04:19.033Z,1.00
2022-11-09T16:06:46.953Z,1.30
2022-11-09T16:09:14.667Z,1.03
2022-11-09T16:11:41.812Z,1.23
2022-11-09T16:14:08.657Z,1.03
2022-11-09T16:16:35.471Z,0.93
2022-11-09T16:19:02.227Z,1.10
2022-11-09T16:21:31.895Z,1.37
2022-11-09T16:23:58.962Z,1.00
2022-11-09T16:26:25.961Z,1.10
2022-11-09T16:28:54.810Z,1.00
2022-11-09T16:31:41.026Z,1.10
2022-11-09T16:34:11.037Z,1.20
2022-11-09T16:36:44.287Z,1.30
2022-11-09T16:39:17.267Z,1.40
2022-11-09T16:41:50.819Z,1.20
2022-11-09T16:44:23.673Z,1.57
2022-11-09T16:46:52.165Z,1.37
2022-11-09T16:49:19.040Z,0.90
2022-11-09T16:51:45.870Z,1.37
2022-11-09T16:54:14.974Z,1.47
2022-11-09T16:56:41.725Z,1.43
2022-11-09T16:59:08.573Z,1.30
2022-11-09T17:01:35.534Z,1.90
2022-11-09T17:04:02.343Z,1.20
2022-11-09T17:06:29.309Z,1.43
2022-11-09T17:08:56.967Z,1.57
2022-11-09T17:11:24.277Z,1.60
2022-11-09T17:13:58.805Z,1.63
2022-11-09T17:16:26.084Z,1.00
2022-11-09T17:18:54.132Z,1.27
2022-11-09T17:21:21.463Z,1.27
2022-11-09T17:23:48.632Z,1.60
2022-11-09T17:26:15.397Z,1.80
2022-11-09T17:28:43.309Z,1.27
2022-11-09T17:31:19.304Z,1.43
2022-11-09T17:33:46.174Z,1.90
2022-11-09T17:36:15.264Z,1.20
2022-11-09T17:38:45.502Z,1.10
2022-11-09T17:41:18.544Z,1.20
2022-11-09T17:43:45.541Z,1.20
2022-11-09T17:46:14.053Z,1.60
2022-11-09T17:48:42.467Z,1.37
2022-11-09T17:51:10.230Z,1.40
2022-11-09T17:53:40.106Z,1.60
2022-11-09T17:56:08.704Z,1.63
2022-11-09T17:58:38.552Z,1.40
2022-11-09T18:01:25.868Z,1.40
2022-11-09T18:03:52.960Z,1.40
2022-11-09T18:06:23.143Z,1.43
2022-11-09T18:09:10.859Z,1.10
2022-11-09T18:11:37.085Z,1.20
2022-11-09T18:14:04.300Z,1.57
2022-11-09T18:16:30.981Z,1.63
2022-11-09T18:19:02.167Z,1.63
2022-11-09T18:21:30.495Z,1.90
2022-11-09T18:23:57.249Z,1.73
2022-11-09T18:26:24.184Z,1.53
2022-11-09T18:28:51.003Z,1.60
2022-11-09T18:31:17.777Z,1.70
2022-11-09T18:33:44.587Z,1.93
2022-11-09T18:36:15.599Z,1.17
2022-11-09T18:38:43.569Z,1.80
2022-11-09T18:41:15.266Z,1.63
2022-11-09T18:43:42.507Z,1.40
2022-11-09T18:46:12.545Z,1.30
2022-11-09T18:48:39.517Z,1.63
2022-11-09T18:51:07.950Z,1.70
2022-11-09T18:53:37.740Z,2.03
2022-11-09T18:56:07.766Z,1.93
2022-11-09T18:58:35.093Z,1.80
2022-11-09T19:01:07.124Z,2.10
2022-11-09T19:03:34.747Z,2.00
2022-11-09T19:06:09.080Z,1.60
2022-11-09T19:08:54.442Z,1.67
2022-11-09T19:11:24.117Z,1.67
2022-11-09T19:13:50.800Z,1.57
2022-11-09T19:16:18.528Z,2.13
2022-11-09T19:18:45.374Z,2.30
2022-11-09T19:21:34.089Z,2.00
2022-11-09T19:24:03.864Z,1.70
2022-11-09T19:26:30.769Z,1.77
2022-11-09T19:28:57.573Z,2.00
2022-11-09T19:31:25.133Z,2.00
2022-11-09T19:33:52.520Z,2.43
2022-11-09T19:36:30.417Z,2.47
2022-11-09T19:38:58.040Z,1.70
2022-11-09T19:41:25.529Z,2.00
2022-11-09T19:43:54.731Z,1.87
2022-11-09T19:46:22.083Z,2.20
2022-11-09T19:48:49.002Z,1.80
2022-11-09T19:51:17.774Z,1.97
2022-11-09T19:53:55.972Z,1.90
2022-11-09T19:56:24.980Z,1.70
2022-11-09T19:58:53.900Z,1.87
2022-11-09T20:01:21.540Z,1.93
2022-11-09T20:03:50.336Z,2.07
2022-11-09T20:06:18.257Z,1.97
2022-11-09T20:08:45.171Z,2.40
2022-11-09T20:11:34.171Z,2.20
2022-11-09T20:14:01.050Z,2.40
2022-11-09T20:16:28.060Z,2.00
2022-11-09T20:18:57.996Z,2.20
2022-11-09T20:21:24.731Z,2.60
2022-11-09T20:23:51.659Z,2.03
2022-11-09T20:26:18.565Z,2.50
2022-11-09T20:28:47.804Z,2.00
2022-11-09T20:31:19.628Z,2.20
2022-11-09T20:33:46.756Z,2.43
2022-11-09T20:36:14.411Z,2.20
2022-11-09T20:38:41.963Z,2.07
2022-11-09T20:41:11.118Z,1.87
2022-11-09T20:43:38.000Z,2.43
2022-11-09T20:46:09.954Z,2.13
2022-11-09T20:48:54.922Z,2.60
2022-11-09T20:51:23.064Z,2.23
2022-11-09T20:53:50.725Z,2.20
2022-11-09T20:56:18.951Z,2.50
2022-11-09T20:58:46.456Z,2.10
2022-11-09T21:01:19.438Z,2.47
2022-11-09T21:03:47.263Z,2.93
2022-11-09T21:06:14.746Z,2.20
2022-11-09T21:08:51.341Z,2.60
2022-11-09T21:11:19.125Z,2.60
2022-11-09T21:13:53.172Z,2.53
2022-11-09T21:16:21.411Z,2.67
2022-11-09T21:18:48.767Z,2.30
2022-11-09T21:21:20.775Z,2.27
2022-11-09T21:24:06.400Z,2.93
2022-11-09T21:26:52.446Z,2.30
2022-11-09T21:29:42.877Z,2.93
2022-11-09T21:32:11.680Z,2.60
2022-11-09T21:34:38.981Z,2.37
2022-11-09T21:37:05.804Z,2.40
2022-11-09T21:39:32.888Z,2.83
2022-11-09T21:42:03.769Z,2.20
2022-11-09T21:44:32.544Z,2.63
2022-11-09T21:47:00.084Z,2.80
2022-11-09T21:49:27.169Z,3.07
2022-11-09T21:51:56.905Z,2.13
2022-11-09T21:54:23.821Z,2.50
2022-11-09T21:56:53.000Z,3.07
2022-11-09T21:59:20.287Z,3.40
2022-11-09T22:01:47.136Z,2.40
2022-11-09T22:04:17.646Z,2.77
2022-11-09T22:06:44.520Z,2.17
2022-11-09T22:09:17.948Z,2.40
2022-11-09T22:12:03.785Z,2.73
2022-11-09T22:14:49.790Z,2.53
2022-11-09T22:17:16.539Z,2.67
2022-11-09T22:20:02.122Z,2.60
2022-11-09T22:22:30.087Z,2.50
2022-11-09T22:24:56.895Z,2.77
2022-11-09T22:27:26.669Z,2.63
2022-11-09T22:29:53.384Z,2.50
2022-11-09T22:32:20.658Z,2.57
2022-11-09T22:34:50.471Z,2.40
2022-11-09T22:37:17.263Z,2.63
2022-11-09T22:39:47.623Z,2.57
2022-11-09T22:42:14.785Z,2.57
2022-11-09T22:44:41.467Z,2.80
2022-11-09T22:47:08.166Z,2.63
2022-11-09T22:49:36.908Z,2.43
2022-11-09T22:52:07.064Z,2.57
2022-11-09T22:54:33.773Z,2.20
2022-11-09T22:57:00.480Z,2.60
2022-11-09T22:59:27.238Z,3.07
2022-11-09T23:01:53.972Z,3.00
2022-11-09T23:04:20.911Z,2.93
2022-11-09T23:06:47.674Z,2.33
2022-11-09T23:09:14.633Z,2.40
2022-11-09T23:11:41.503Z,2.80
2022-11-09T23:14:12.154Z,2.67
2022-11-09T23:16:38.944Z,2.70
2022-11-09T23:19:05.670Z,3.07
2022-11-09T23:21:34.628Z,2.90
2022-11-09T23:24:07.300Z,2.60
2022-11-09T23:26:34.990Z,2.53
2022-11-09T23:29:02.096Z,2.83
2022-11-09T23:31:29.031Z,2.43
2022-11-09T23:33:57.798Z,2.77
2022-11-09T23:36:28.565Z,2.77
2022-11-09T23:38:55.235Z,2.90
2022-11-09T23:41:23.471Z,2.37
2022-11-09T23:43:54.311Z,2.83
2022-11-09T23:46:21.045Z,2.50
2022-11-09T23:48:47.762Z,2.47
2022-11-09T23:51:18.637Z,3.17
2022-11-09T23:53:50.318Z,2.83
2022-11-09T23:56:17.012Z,2.47
2022-11-09T23:58:49.126Z,3.03
